sensor_id;sensor_type;location;lat;lon;timestamp;P1;durP1;ratioP1;P2;durP2;ratioP2
44476;SDS011;30180;44.788;10.366;2024-02-23T00:01:44;10.75;;;6.70;;
44476;SDS011;30180;44.788;10.366;2024-02-23T00:04:13;10.18;;;5.82;;
44476;SDS011;30180;44.788;10.366;2024-02-23T00:06:42;12.52;;;6.47;;
44476;SDS011;30180;44.788;10.366;2024-02-23T00:09:11;10.95;;;6.22;;
44476;SDS011;30180;44.788;10.366;2024-02-23T00:11:39;9.95;;;6.07;;
44476;SDS011;30180;44.788;10.366;2024-02-23T00:14:13;10.43;;;6.32;;
44476;SDS011;30180;44.788;10.366;2024-02-23T00:16:43;12.82;;;6.25;;
44476;SDS011;30180;44.788;10.366;2024-02-23T00:19:11;10.02;;;6.00;;
44476;SDS011;30180;44.788;10.366;2024-02-23T00:21:41;9.98;;;6.22;;
44476;SDS011;30180;44.788;10.366;2024-02-23T00:24:14;13.13;;;5.72;;
44476;SDS011;30180;44.788;10.366;2024-02-23T00:26:42;9.95;;;6.03;;
44476;SDS011;30180;44.788;10.366;2024-02-23T00:29:12;10.73;;;5.82;;
44476;SDS011;30180;44.788;10.366;2024-02-23T00:31:41;12.13;;;6.18;;
44476;SDS011;30180;44.788;10.366;2024-02-23T00:34:12;10.52;;;6.07;;
44476;SDS011;30180;44.788;10.366;2024-02-23T00:36:41;9.77;;;5.90;;
44476;SDS011;30180;44.788;10.366;2024-02-23T00:39:11;9.38;;;5.70;;
44476;SDS011;30180;44.788;10.366;2024-02-23T00:41:39;12.20;;;5.72;;
44476;SDS011;30180;44.788;10.366;2024-02-23T00:44:08;9.82;;;5.97;;
44476;SDS011;30180;44.788;10.366;2024-02-23T00:46:38;9.45;;;5.82;;
44476;SDS011;30180;44.788;10.366;2024-02-23T00:49:06;10.48;;;5.97;;
44476;SDS011;30180;44.788;10.366;2024-02-23T00:51:35;9.60;;;6.32;;
44476;SDS011;30180;44.788;10.366;2024-02-23T00:54:03;10.93;;;6.13;;
44476;SDS011;30180;44.788;10.366;2024-02-23T00:56:32;12.10;;;6.80;;
44476;SDS011;30180;44.788;10.366;2024-02-23T00:59:16;9.48;;;5.63;;
44476;SDS011;30180;44.788;10.366;2024-02-23T01:01:46;9.25;;;5.93;;
44476;SDS011;30180;44.788;10.366;2024-02-23T01:04:14;10.82;;;5.53;;
44476;SDS011;30180;44.788;10.366;2024-02-23T01:06:43;11.20;;;5.90;;
44476;SDS011;30180;44.788;10.366;2024-02-23T01:09:11;9.75;;;6.32;;
44476;SDS011;30180;44.788;10.366;2024-02-23T01:11:42;8.85;;;6.13;;
44476;SDS011;30180;44.788;10.366;2024-02-23T01:14:11;11.50;;;5.95;;
44476;SDS011;30180;44.788;10.366;2024-02-23T01:16:39;10.38;;;5.68;;
44476;SDS011;30180;44.788;10.366;2024-02-23T01:19:09;9.65;;;6.00;;
44476;SDS011;30180;44.788;10.366;2024-02-23T01:21:38;10.00;;;6.22;;
44476;SDS011;30180;44.788;10.366;2024-02-23T01:24:06;9.18;;;5.53;;
44476;SDS011;30180;44.788;10.366;2024-02-23T01:26:34;9.18;;;5.43;;
44476;SDS011;30180;44.788;10.366;2024-02-23T01:29:07;9.25;;;6.10;;
44476;SDS011;30180;44.788;10.366;2024-02-23T01:31:35;8.80;;;5.43;;
44476;SDS011;30180;44.788;10.366;2024-02-23T01:34:03;12.93;;;6.03;;
44476;SDS011;30180;44.788;10.366;2024-02-23T01:36:33;9.98;;;5.90;;
44476;SDS011;30180;44.788;10.366;2024-02-23T01:39:03;10.75;;;5.90;;
44476;SDS011;30180;44.788;10.366;2024-02-23T01:41:31;10.32;;;5.88;;
44476;SDS011;30180;44.788;10.366;2024-02-23T01:44:00;9.02;;;5.65;;
44476;SDS011;30180;44.788;10.366;2024-02-23T01:46:28;10.65;;;6.05;;
44476;SDS011;30180;44.788;10.366;2024-02-23T01:48:57;10.13;;;5.72;;
44476;SDS011;30180;44.788;10.366;2024-02-23T01:51:26;8.93;;;5.50;;
44476;SDS011;30180;44.788;10.366;2024-02-23T01:53:56;8.70;;;5.63;;
44476;SDS011;30180;44.788;10.366;2024-02-23T01:56:24;8.90;;;5.50;;
44476;SDS011;30180;44.788;10.366;2024-02-23T01:58:54;8.05;;;5.10;;
44476;SDS011;30180;44.788;10.366;2024-02-23T02:01:23;9.57;;;5.60;;
44476;SDS011;30180;44.788;10.366;2024-02-23T02:03:52;9.65;;;6.00;;
44476;SDS011;30180;44.788;10.366;2024-02-23T02:06:22;8.97;;;5.53;;
44476;SDS011;30180;44.788;10.366;2024-02-23T02:08:52;7.68;;;5.03;;
44476;SDS011;30180;44.788;10.366;2024-02-23T02:11:22;10.10;;;5.65;;
44476;SDS011;30180;44.788;10.366;2024-02-23T02:13:51;8.63;;;5.28;;
44476;SDS011;30180;44.788;10.366;2024-02-23T02:16:19;8.73;;;5.13;;
44476;SDS011;30180;44.788;10.366;2024-02-23T02:18:48;8.40;;;5.50;;
44476;SDS011;30180;44.788;10.366;2024-02-23T02:21:17;9.20;;;5.28;;
44476;SDS011;30180;44.788;10.366;2024-02-23T02:23:50;8.15;;;5.45;;
44476;SDS011;30180;44.788;10.366;2024-02-23T02:26:18;8.75;;;5.70;;
44476;SDS011;30180;44.788;10.366;2024-02-23T02:28:48;9.10;;;5.25;;
44476;SDS011;30180;44.788;10.366;2024-02-23T02:31:16;9.73;;;4.95;;
44476;SDS011;30180;44.788;10.366;2024-02-23T02:33:45;8.63;;;5.13;;
44476;SDS011;30180;44.788;10.366;2024-02-23T02:36:14;7.90;;;5.15;;
44476;SDS011;30180;44.788;10.366;2024-02-23T02:38:42;9.70;;;5.18;;
44476;SDS011;30180;44.788;10.366;2024-02-23T02:41:10;9.13;;;4.95;;
44476;SDS011;30180;44.788;10.366;2024-02-23T02:43:39;9.93;;;4.93;;
44476;SDS011;30180;44.788;10.366;2024-02-23T02:46:09;8.30;;;5.68;;
44476;SDS011;30180;44.788;10.366;2024-02-23T02:48:37;10.18;;;5.25;;
44476;SDS011;30180;44.788;10.366;2024-02-23T02:51:06;7.75;;;5.15;;
44476;SDS011;30180;44.788;10.366;2024-02-23T02:53:34;8.63;;;5.18;;
44476;SDS011;30180;44.788;10.366;2024-02-23T02:56:05;9.23;;;4.97;;
44476;SDS011;30180;44.788;10.366;2024-02-23T02:58:34;9.18;;;5.00;;
44476;SDS011;30180;44.788;10.366;2024-02-23T03:01:02;7.18;;;4.82;;
44476;SDS011;30180;44.788;10.366;2024-02-23T03:03:32;9.23;;;5.10;;
44476;SDS011;30180;44.788;10.366;2024-02-23T03:06:01;8.18;;;5.10;;
44476;SDS011;30180;44.788;10.366;2024-02-23T03:08:30;8.82;;;4.82;;
44476;SDS011;30180;44.788;10.366;2024-02-23T03:10:58;8.07;;;4.43;;
44476;SDS011;30180;44.788;10.366;2024-02-23T03:13:26;9.07;;;5.00;;
44476;SDS011;30180;44.788;10.366;2024-02-23T03:15:55;8.40;;;4.82;;
44476;SDS011;30180;44.788;10.366;2024-02-23T03:18:23;7.88;;;4.90;;
44476;SDS011;30180;44.788;10.366;2024-02-23T03:20:55;8.33;;;4.77;;
44476;SDS011;30180;44.788;10.366;2024-02-23T03:23:23;8.18;;;4.55;;
44476;SDS011;30180;44.788;10.366;2024-02-23T03:25:52;7.80;;;4.63;;
44476;SDS011;30180;44.788;10.366;2024-02-23T03:28:21;7.45;;;4.82;;
44476;SDS011;30180;44.788;10.366;2024-02-23T03:30:49;7.28;;;4.53;;
44476;SDS011;30180;44.788;10.366;2024-02-23T03:33:18;8.98;;;4.68;;
44476;SDS011;30180;44.788;10.366;2024-02-23T03:35:46;7.35;;;4.30;;
44476;SDS011;30180;44.788;10.366;2024-02-23T03:38:16;8.18;;;5.10;;
44476;SDS011;30180;44.788;10.366;2024-02-23T03:40:44;8.40;;;4.72;;
44476;SDS011;30180;44.788;10.366;2024-02-23T03:43:12;7.57;;;4.78;;
44476;SDS011;30180;44.788;10.366;2024-02-23T03:45:41;8.02;;;4.60;;
44476;SDS011;30180;44.788;10.366;2024-02-23T03:48:09;7.03;;;4.60;;
44476;SDS011;30180;44.788;10.366;2024-02-23T03:50:38;8.05;;;4.80;;
44476;SDS011;30180;44.788;10.366;2024-02-23T03:53:06;7.25;;;4.28;;
44476;SDS011;30180;44.788;10.366;2024-02-23T03:55:36;6.97;;;4.57;;
44476;SDS011;30180;44.788;10.366;2024-02-23T03:58:05;7.25;;;4.15;;
44476;SDS011;30180;44.788;10.366;2024-02-23T04:00:33;6.72;;;4.40;;
44476;SDS011;30180;44.788;10.366;2024-02-23T04:03:02;7.35;;;4.22;;
44476;SDS011;30180;44.788;10.366;2024-02-23T04:05:30;6.72;;;4.28;;
44476;SDS011;30180;44.788;10.366;2024-02-23T04:07:58;8.00;;;4.70;;
44476;SDS011;30180;44.788;10.366;2024-02-23T04:10:27;6.38;;;4.00;;
44476;SDS011;30180;44.788;10.366;2024-02-23T04:12:57;6.75;;;4.40;;
44476;SDS011;30180;44.788;10.366;2024-02-23T04:15:26;8.60;;;4.67;;
44476;SDS011;30180;44.788;10.366;2024-02-23T04:17:54;8.57;;;4.30;;
44476;SDS011;30180;44.788;10.366;2024-02-23T04:20:22;7.03;;;4.43;;
44476;SDS011;30180;44.788;10.366;2024-02-23T04:22:51;8.05;;;4.32;;
44476;SDS011;30180;44.788;10.366;2024-02-23T04:25:20;7.80;;;3.78;;
44476;SDS011;30180;44.788;10.366;2024-02-23T04:27:48;8.95;;;4.40;;
44476;SDS011;30180;44.788;10.366;2024-02-23T04:30:18;6.82;;;4.10;;
44476;SDS011;30180;44.788;10.366;2024-02-23T04:32:46;6.93;;;4.05;;
44476;SDS011;30180;44.788;10.366;2024-02-23T04:35:15;6.93;;;4.13;;
44476;SDS011;30180;44.788;10.366;2024-02-23T04:37:44;7.38;;;4.30;;
44476;SDS011;30180;44.788;10.366;2024-02-23T04:40:12;6.35;;;4.10;;
44476;SDS011;30180;44.788;10.366;2024-02-23T04:42:43;7.20;;;3.97;;
44476;SDS011;30180;44.788;10.366;2024-02-23T04:45:11;5.50;;;3.53;;
44476;SDS011;30180;44.788;10.366;2024-02-23T04:47:41;6.85;;;3.88;;
44476;SDS011;30180;44.788;10.366;2024-02-23T04:50:11;6.78;;;3.90;;
44476;SDS011;30180;44.788;10.366;2024-02-23T04:52:39;5.85;;;4.00;;
44476;SDS011;30180;44.788;10.366;2024-02-23T04:55:08;6.80;;;3.80;;
44476;SDS011;30180;44.788;10.366;2024-02-23T04:57:37;6.13;;;3.80;;
44476;SDS011;30180;44.788;10.366;2024-02-23T05:00:06;6.60;;;3.75;;
44476;SDS011;30180;44.788;10.366;2024-02-23T05:02:35;5.57;;;3.55;;
44476;SDS011;30180;44.788;10.366;2024-02-23T05:05:06;5.95;;;3.80;;
44476;SDS011;30180;44.788;10.366;2024-02-23T05:07:35;6.85;;;4.22;;
44476;SDS011;30180;44.788;10.366;2024-02-23T05:10:03;6.57;;;4.05;;
44476;SDS011;30180;44.788;10.366;2024-02-23T05:12:32;6.38;;;4.00;;
44476;SDS011;30180;44.788;10.366;2024-02-23T05:15:01;5.90;;;3.85;;
44476;SDS011;30180;44.788;10.366;2024-02-23T05:17:29;6.78;;;4.07;;
44476;SDS011;30180;44.788;10.366;2024-02-23T05:19:58;9.13;;;3.80;;
44476;SDS011;30180;44.788;10.366;2024-02-23T05:22:28;6.53;;;3.75;;
44476;SDS011;30180;44.788;10.366;2024-02-23T05:24:57;5.90;;;3.78;;
44476;SDS011;30180;44.788;10.366;2024-02-23T05:27:25;6.00;;;3.53;;
44476;SDS011;30180;44.788;10.366;2024-02-23T05:29:54;5.63;;;3.58;;
44476;SDS011;30180;44.788;10.366;2024-02-23T05:32:23;7.05;;;3.92;;
44476;SDS011;30180;44.788;10.366;2024-02-23T05:34:52;6.57;;;3.88;;
44476;SDS011;30180;44.788;10.366;2024-02-23T05:37:20;6.57;;;3.85;;
44476;SDS011;30180;44.788;10.366;2024-02-23T05:39:50;7.82;;;3.53;;
44476;SDS011;30180;44.788;10.366;2024-02-23T05:42:20;7.10;;;3.50;;
44476;SDS011;30180;44.788;10.366;2024-02-23T05:44:48;6.18;;;3.80;;
44476;SDS011;30180;44.788;10.366;2024-02-23T05:47:17;4.95;;;3.15;;
44476;SDS011;30180;44.788;10.366;2024-02-23T05:49:47;6.50;;;3.30;;
44476;SDS011;30180;44.788;10.366;2024-02-23T05:52:16;6.05;;;3.75;;
44476;SDS011;30180;44.788;10.366;2024-02-23T05:54:44;5.82;;;3.42;;
44476;SDS011;30180;44.788;10.366;2024-02-23T05:57:19;5.20;;;3.67;;
44476;SDS011;30180;44.788;10.366;2024-02-23T05:59:49;7.82;;;3.80;;
44476;SDS011;30180;44.788;10.366;2024-02-23T06:02:18;5.78;;;3.28;;
44476;SDS011;30180;44.788;10.366;2024-02-23T06:04:47;6.95;;;3.25;;
44476;SDS011;30180;44.788;10.366;2024-02-23T06:07:15;6.60;;;3.60;;
44476;SDS011;30180;44.788;10.366;2024-02-23T06:09:44;5.63;;;3.30;;
44476;SDS011;30180;44.788;10.366;2024-02-23T06:12:12;5.82;;;3.78;;
44476;SDS011;30180;44.788;10.366;2024-02-23T06:14:42;6.13;;;3.53;;
44476;SDS011;30180;44.788;10.366;2024-02-23T06:17:11;6.53;;;3.67;;
44476;SDS011;30180;44.788;10.366;2024-02-23T06:19:39;6.97;;;3.50;;
44476;SDS011;30180;44.788;10.366;2024-02-23T06:22:08;9.85;;;3.75;;
44476;SDS011;30180;44.788;10.366;2024-02-23T06:24:38;5.50;;;3.70;;
44476;SDS011;30180;44.788;10.366;2024-02-23T06:27:07;7.07;;;3.88;;
44476;SDS011;30180;44.788;10.366;2024-02-23T06:29:35;7.03;;;3.92;;
44476;SDS011;30180;44.788;10.366;2024-02-23T06:32:05;7.68;;;4.05;;
44476;SDS011;30180;44.788;10.366;2024-02-23T06:34:34;6.05;;;3.50;;
44476;SDS011;30180;44.788;10.366;2024-02-23T06:37:03;8.45;;;3.55;;
44476;SDS011;30180;44.788;10.366;2024-02-23T06:39:32;8.30;;;3.25;;
44476;SDS011;30180;44.788;10.366;2024-02-23T06:42:00;7.35;;;3.75;;
44476;SDS011;30180;44.788;10.366;2024-02-23T06:44:30;8.23;;;3.55;;
44476;SDS011;30180;44.788;10.366;2024-02-23T06:46:59;9.80;;;3.17;;
44476;SDS011;30180;44.788;10.366;2024-02-23T06:49:29;6.15;;;3.70;;
44476;SDS011;30180;44.788;10.366;2024-02-23T06:51:58;10.20;;;3.05;;
44476;SDS011;30180;44.788;10.366;2024-02-23T06:54:26;5.70;;;3.35;;
44476;SDS011;30180;44.788;10.366;2024-02-23T06:56:55;5.68;;;3.45;;
44476;SDS011;30180;44.788;10.366;2024-02-23T06:59:24;9.73;;;3.55;;
44476;SDS011;30180;44.788;10.366;2024-02-23T07:01:52;9.60;;;3.08;;
44476;SDS011;30180;44.788;10.366;2024-02-23T07:04:21;6.93;;;3.33;;
44476;SDS011;30180;44.788;10.366;2024-02-23T07:06:51;5.68;;;3.22;;
44476;SDS011;30180;44.788;10.366;2024-02-23T07:09:20;7.93;;;3.38;;
44476;SDS011;30180;44.788;10.366;2024-02-23T07:11:48;6.55;;;3.28;;
44476;SDS011;30180;44.788;10.366;2024-02-23T07:14:16;10.27;;;3.35;;
44476;SDS011;30180;44.788;10.366;2024-02-23T07:16:46;6.97;;;3.37;;
44476;SDS011;30180;44.788;10.366;2024-02-23T07:19:15;13.32;;;3.90;;
44476;SDS011;30180;44.788;10.366;2024-02-23T07:21:44;8.18;;;3.33;;
44476;SDS011;30180;44.788;10.366;2024-02-23T07:24:14;11.45;;;3.63;;
44476;SDS011;30180;44.788;10.366;2024-02-23T07:26:44;14.38;;;3.78;;
44476;SDS011;30180;44.788;10.366;2024-02-23T07:29:12;18.73;;;3.72;;
44476;SDS011;30180;44.788;10.366;2024-02-23T07:31:44;9.13;;;3.55;;
44476;SDS011;30180;44.788;10.366;2024-02-23T07:34:13;13.45;;;3.95;;
44476;SDS011;30180;44.788;10.366;2024-02-23T07:36:42;15.85;;;4.22;;
44476;SDS011;30180;44.788;10.366;2024-02-23T07:39:11;18.02;;;3.90;;
44476;SDS011;30180;44.788;10.366;2024-02-23T07:41:42;18.05;;;3.72;;
44476;SDS011;30180;44.788;10.366;2024-02-23T07:47:06;18.92;;;4.03;;
44476;SDS011;30180;44.788;10.366;2024-02-23T07:49:34;13.40;;;4.00;;
44476;SDS011;30180;44.788;10.366;2024-02-23T07:52:03;14.45;;;3.92;;
44476;SDS011;30180;44.788;10.366;2024-02-23T07:54:33;10.52;;;4.10;;
44476;SDS011;30180;44.788;10.366;2024-02-23T07:57:01;14.88;;;4.30;;
44476;SDS011;30180;44.788;10.366;2024-02-23T07:59:31;19.17;;;5.20;;
44476;SDS011;30180;44.788;10.366;2024-02-23T08:01:59;16.65;;;5.55;;
44476;SDS011;30180;44.788;10.366;2024-02-23T08:04:28;13.65;;;5.45;;
44476;SDS011;30180;44.788;10.366;2024-02-23T08:06:56;15.88;;;6.03;;
44476;SDS011;30180;44.788;10.366;2024-02-23T08:09:24;13.73;;;6.25;;
44476;SDS011;30180;44.788;10.366;2024-02-23T08:11:54;14.75;;;6.32;;
44476;SDS011;30180;44.788;10.366;2024-02-23T08:14:23;24.15;;;7.15;;
44476;SDS011;30180;44.788;10.366;2024-02-23T08:16:51;15.55;;;6.80;;
44476;SDS011;30180;44.788;10.366;2024-02-23T08:19:20;18.80;;;6.75;;
44476;SDS011;30180;44.788;10.366;2024-02-23T08:21:48;14.90;;;7.22;;
44476;SDS011;30180;44.788;10.366;2024-02-23T08:24:17;17.52;;;7.70;;
44476;SDS011;30180;44.788;10.366;2024-02-23T08:26:45;18.75;;;7.28;;
44476;SDS011;30180;44.788;10.366;2024-02-23T08:29:16;14.98;;;8.35;;
44476;SDS011;30180;44.788;10.366;2024-02-23T08:31:44;16.77;;;8.30;;
44476;SDS011;30180;44.788;10.366;2024-02-23T08:34:13;23.05;;;8.77;;
44476;SDS011;30180;44.788;10.366;2024-02-23T08:36:41;18.35;;;8.90;;
44476;SDS011;30180;44.788;10.366;2024-02-23T08:39:09;17.70;;;8.27;;
44476;SDS011;30180;44.788;10.366;2024-02-23T08:41:38;15.90;;;9.57;;
44476;SDS011;30180;44.788;10.366;2024-02-23T08:44:06;21.80;;;9.18;;
44476;SDS011;30180;44.788;10.366;2024-02-23T08:46:36;20.30;;;9.30;;
44476;SDS011;30180;44.788;10.366;2024-02-23T08:49:05;18.00;;;9.40;;
44476;SDS011;30180;44.788;10.366;2024-02-23T08:51:34;17.20;;;9.43;;
44476;SDS011;30180;44.788;10.366;2024-02-23T08:54:02;19.55;;;10.48;;
44476;SDS011;30180;44.788;10.366;2024-02-23T08:56:34;23.30;;;10.75;;
44476;SDS011;30180;44.788;10.366;2024-02-23T08:59:04;26.38;;;10.85;;
44476;SDS011;30180;44.788;10.366;2024-02-23T09:01:33;30.05;;;12.05;;
44476;SDS011;30180;44.788;10.366;2024-02-23T09:04:02;32.67;;;11.65;;
44476;SDS011;30180;44.788;10.366;2024-02-23T09:06:31;34.70;;;12.93;;
44476;SDS011;30180;44.788;10.366;2024-02-23T09:09:05;31.65;;;11.85;;
44476;SDS011;30180;44.788;10.366;2024-02-23T09:11:33;34.95;;;11.65;;
44476;SDS011;30180;44.788;10.366;2024-02-23T09:14:02;31.50;;;12.07;;
44476;SDS011;30180;44.788;10.366;2024-02-23T09:16:31;24.58;;;12.38;;
44476;SDS011;30180;44.788;10.366;2024-02-23T09:18:59;25.27;;;12.13;;
44476;SDS011;30180;44.788;10.366;2024-02-23T09:21:29;29.52;;;11.60;;
44476;SDS011;30180;44.788;10.366;2024-02-23T09:23:58;25.08;;;11.75;;
44476;SDS011;30180;44.788;10.366;2024-02-23T09:26:26;26.20;;;12.40;;
44476;SDS011;30180;44.788;10.366;2024-02-23T09:28:55;28.88;;;12.35;;
44476;SDS011;30180;44.788;10.366;2024-02-23T09:31:23;22.08;;;10.82;;
44476;SDS011;30180;44.788;10.366;2024-02-23T09:33:52;24.65;;;12.10;;
44476;SDS011;30180;44.788;10.366;2024-02-23T09:36:21;24.55;;;12.10;;
44476;SDS011;30180;44.788;10.366;2024-02-23T09:38:51;24.08;;;12.07;;
44476;SDS011;30180;44.788;10.366;2024-02-23T09:41:20;23.85;;;11.90;;
44476;SDS011;30180;44.788;10.366;2024-02-23T09:43:49;27.48;;;12.35;;
44476;SDS011;30180;44.788;10.366;2024-02-23T09:46:19;28.02;;;11.98;;
44476;SDS011;30180;44.788;10.366;2024-02-23T09:48:48;25.23;;;12.10;;
44476;SDS011;30180;44.788;10.366;2024-02-23T09:51:17;22.25;;;11.52;;
44476;SDS011;30180;44.788;10.366;2024-02-23T09:53:47;22.42;;;11.85;;
44476;SDS011;30180;44.788;10.366;2024-02-23T09:56:19;23.73;;;10.70;;
44476;SDS011;30180;44.788;10.366;2024-02-23T09:58:51;22.05;;;11.60;;
44476;SDS011;30180;44.788;10.366;2024-02-23T10:01:24;22.55;;;10.55;;
44476;SDS011;30180;44.788;10.366;2024-02-23T10:03:57;20.33;;;10.60;;
44476;SDS011;30180;44.788;10.366;2024-02-23T10:06:26;21.60;;;10.75;;
44476;SDS011;30180;44.788;10.366;2024-02-23T10:08:54;20.08;;;11.25;;
44476;SDS011;30180;44.788;10.366;2024-02-23T10:11:24;23.35;;;10.88;;
44476;SDS011;30180;44.788;10.366;2024-02-23T10:13:53;19.83;;;10.17;;
44476;SDS011;30180;44.788;10.366;2024-02-23T10:16:22;22.02;;;10.70;;
44476;SDS011;30180;44.788;10.366;2024-02-23T10:18:50;21.25;;;10.35;;
44476;SDS011;30180;44.788;10.366;2024-02-23T10:21:18;19.80;;;10.05;;
44476;SDS011;30180;44.788;10.366;2024-02-23T10:23:47;17.08;;;10.32;;
44476;SDS011;30180;44.788;10.366;2024-02-23T10:26:18;21.67;;;9.80;;
44476;SDS011;30180;44.788;10.366;2024-02-23T10:28:50;18.08;;;10.13;;
44476;SDS011;30180;44.788;10.366;2024-02-23T10:31:19;20.33;;;10.93;;
44476;SDS011;30180;44.788;10.366;2024-02-23T10:33:49;21.80;;;11.18;;
44476;SDS011;30180;44.788;10.366;2024-02-23T10:36:19;15.70;;;10.40;;
44476;SDS011;30180;44.788;10.366;2024-02-23T10:38:48;19.42;;;9.85;;
44476;SDS011;30180;44.788;10.366;2024-02-23T10:41:24;16.25;;;9.68;;
44476;SDS011;30180;44.788;10.366;2024-02-23T10:43:55;18.95;;;9.68;;
44476;SDS011;30180;44.788;10.366;2024-02-23T10:46:26;20.75;;;10.55;;
44476;SDS011;30180;44.788;10.366;2024-02-23T10:48:55;19.40;;;10.13;;
44476;SDS011;30180;44.788;10.366;2024-02-23T10:51:25;13.88;;;9.20;;
44476;SDS011;30180;44.788;10.366;2024-02-23T10:53:54;18.98;;;10.18;;
44476;SDS011;30180;44.788;10.366;2024-02-23T10:56:23;17.30;;;9.52;;
44476;SDS011;30180;44.788;10.366;2024-02-23T10:58:52;13.70;;;8.65;;
44476;SDS011;30180;44.788;10.366;2024-02-23T11:01:22;16.17;;;10.00;;
44476;SDS011;30180;44.788;10.366;2024-02-23T11:03:52;23.15;;;10.15;;
44476;SDS011;30180;44.788;10.366;2024-02-23T11:06:26;20.52;;;9.63;;
44476;SDS011;30180;44.788;10.366;2024-02-23T11:09:04;20.35;;;9.50;;
44476;SDS011;30180;44.788;10.366;2024-02-23T11:11:33;16.60;;;9.98;;
44476;SDS011;30180;44.788;10.366;2024-02-23T11:14:03;17.30;;;9.05;;
44476;SDS011;30180;44.788;10.366;2024-02-23T11:16:38;18.10;;;9.23;;
44476;SDS011;30180;44.788;10.366;2024-02-23T11:19:08;17.58;;;9.43;;
44476;SDS011;30180;44.788;10.366;2024-02-23T11:21:38;13.30;;;8.80;;
44476;SDS011;30180;44.788;10.366;2024-02-23T11:24:06;18.90;;;8.82;;
44476;SDS011;30180;44.788;10.366;2024-02-23T11:26:36;16.98;;;8.65;;
44476;SDS011;30180;44.788;10.366;2024-02-23T11:29:15;16.93;;;8.13;;
44476;SDS011;30180;44.788;10.366;2024-02-23T11:31:46;18.20;;;8.90;;
44476;SDS011;30180;44.788;10.366;2024-02-23T11:34:15;21.10;;;8.93;;
44476;SDS011;30180;44.788;10.366;2024-02-23T11:36:51;18.40;;;8.70;;
44476;SDS011;30180;44.788;10.366;2024-02-23T11:39:20;17.98;;;8.20;;
44476;SDS011;30180;44.788;10.366;2024-02-23T11:41:49;19.65;;;8.57;;
44476;SDS011;30180;44.788;10.366;2024-02-23T11:44:19;16.40;;;9.02;;
44476;SDS011;30180;44.788;10.366;2024-02-23T11:46:47;18.13;;;8.90;;
44476;SDS011;30180;44.788;10.366;2024-02-23T11:49:16;15.13;;;8.23;;
44476;SDS011;30180;44.788;10.366;2024-02-23T11:51:44;13.20;;;7.90;;
44476;SDS011;30180;44.788;10.366;2024-02-23T11:54:12;16.17;;;8.32;;
44476;SDS011;30180;44.788;10.366;2024-02-23T11:56:41;14.45;;;8.30;;
44476;SDS011;30180;44.788;10.366;2024-02-23T11:59:10;14.77;;;8.10;;
44476;SDS011;30180;44.788;10.366;2024-02-23T12:01:40;21.00;;;7.72;;
44476;SDS011;30180;44.788;10.366;2024-02-23T12:04:08;18.55;;;7.78;;
44476;SDS011;30180;44.788;10.366;2024-02-23T12:06:37;18.88;;;7.47;;
44476;SDS011;30180;44.788;10.366;2024-02-23T12:09:06;15.75;;;7.57;;
44476;SDS011;30180;44.788;10.366;2024-02-23T12:11:34;17.27;;;8.13;;
44476;SDS011;30180;44.788;10.366;2024-02-23T12:14:03;19.00;;;7.95;;
44476;SDS011;30180;44.788;10.366;2024-02-23T12:16:34;18.92;;;8.35;;
44476;SDS011;30180;44.788;10.366;2024-02-23T12:19:04;13.13;;;7.40;;
44476;SDS011;30180;44.788;10.366;2024-02-23T12:21:34;14.40;;;7.70;;
44476;SDS011;30180;44.788;10.366;2024-02-23T12:24:04;16.43;;;7.53;;
44476;SDS011;30180;44.788;10.366;2024-02-23T12:26:33;15.27;;;7.38;;
44476;SDS011;30180;44.788;10.366;2024-02-23T12:29:02;15.88;;;7.70;;
44476;SDS011;30180;44.788;10.366;2024-02-23T12:31:31;15.35;;;7.30;;
44476;SDS011;30180;44.788;10.366;2024-02-23T12:34:01;15.48;;;6.78;;
44476;SDS011;30180;44.788;10.366;2024-02-23T12:36:31;20.92;;;7.00;;
44476;SDS011;30180;44.788;10.366;2024-02-23T12:39:02;13.80;;;7.18;;
44476;SDS011;30180;44.788;10.366;2024-02-23T12:41:30;13.93;;;6.70;;
44476;SDS011;30180;44.788;10.366;2024-02-23T12:43:59;14.20;;;7.22;;
44476;SDS011;30180;44.788;10.366;2024-02-23T12:46:27;15.57;;;7.72;;
44476;SDS011;30180;44.788;10.366;2024-02-23T12:48:55;15.45;;;6.80;;
44476;SDS011;30180;44.788;10.366;2024-02-23T12:51:24;15.15;;;7.45;;
44476;SDS011;30180;44.788;10.366;2024-02-23T12:53:55;15.43;;;6.55;;
44476;SDS011;30180;44.788;10.366;2024-02-23T12:56:23;15.05;;;6.88;;
44476;SDS011;30180;44.788;10.366;2024-02-23T12:58:52;14.05;;;7.15;;
44476;SDS011;30180;44.788;10.366;2024-02-23T13:01:20;13.25;;;6.10;;
44476;SDS011;30180;44.788;10.366;2024-02-23T13:03:49;13.00;;;6.75;;
44476;SDS011;30180;44.788;10.366;2024-02-23T13:06:18;16.63;;;6.65;;
44476;SDS011;30180;44.788;10.366;2024-02-23T13:08:46;17.65;;;6.47;;
44476;SDS011;30180;44.788;10.366;2024-02-23T13:11:16;14.90;;;6.50;;
44476;SDS011;30180;44.788;10.366;2024-02-23T13:13:45;14.65;;;5.65;;
44476;SDS011;30180;44.788;10.366;2024-02-23T13:16:13;12.00;;;6.25;;
44476;SDS011;30180;44.788;10.366;2024-02-23T13:18:43;14.63;;;5.10;;
44476;SDS011;30180;44.788;10.366;2024-02-23T13:21:13;11.25;;;5.50;;
44476;SDS011;30180;44.788;10.366;2024-02-23T13:23:42;28.05;;;6.38;;
44476;SDS011;30180;44.788;10.366;2024-02-23T13:26:10;13.57;;;5.68;;
44476;SDS011;30180;44.788;10.366;2024-02-23T13:28:42;9.73;;;4.70;;
44476;SDS011;30180;44.788;10.366;2024-02-23T13:31:11;13.87;;;4.83;;
44476;SDS011;30180;44.788;10.366;2024-02-23T13:33:41;15.57;;;5.05;;
44476;SDS011;30180;44.788;10.366;2024-02-23T13:36:10;9.18;;;4.60;;
44476;SDS011;30180;44.788;10.366;2024-02-23T13:38:39;11.52;;;5.65;;
44476;SDS011;30180;44.788;10.366;2024-02-23T13:41:08;16.67;;;5.00;;
44476;SDS011;30180;44.788;10.366;2024-02-23T13:43:38;10.73;;;4.32;;
44476;SDS011;30180;44.788;10.366;2024-02-23T13:46:08;14.90;;;4.80;;
44476;SDS011;30180;44.788;10.366;2024-02-23T13:48:36;10.95;;;4.53;;
44476;SDS011;30180;44.788;10.366;2024-02-23T13:51:05;12.45;;;4.43;;
44476;SDS011;30180;44.788;10.366;2024-02-23T13:53:33;17.80;;;5.40;;
44476;SDS011;30180;44.788;10.366;2024-02-23T13:56:04;14.43;;;4.60;;
44476;SDS011;30180;44.788;10.366;2024-02-23T13:58:32;10.32;;;4.50;;
44476;SDS011;30180;44.788;10.366;2024-02-23T14:01:01;21.35;;;5.00;;
44476;SDS011;30180;44.788;10.366;2024-02-23T14:03:31;12.15;;;4.60;;
44476;SDS011;30180;44.788;10.366;2024-02-23T14:05:59;10.63;;;4.77;;
44476;SDS011;30180;44.788;10.366;2024-02-23T14:08:28;11.98;;;5.10;;
44476;SDS011;30180;44.788;10.366;2024-02-23T14:10:56;14.27;;;4.53;;
44476;SDS011;30180;44.788;10.366;2024-02-23T14:13:25;12.48;;;4.68;;
44476;SDS011;30180;44.788;10.366;2024-02-23T14:15:53;12.57;;;4.45;;
44476;SDS011;30180;44.788;10.366;2024-02-23T14:18:22;7.93;;;4.10;;
44476;SDS011;30180;44.788;10.366;2024-02-23T14:20:51;14.10;;;4.22;;
44476;SDS011;30180;44.788;10.366;2024-02-23T14:23:20;10.65;;;4.38;;
44476;SDS011;30180;44.788;10.366;2024-02-23T14:25:48;14.43;;;4.60;;
44476;SDS011;30180;44.788;10.366;2024-02-23T14:28:18;7.97;;;3.65;;
44476;SDS011;30180;44.788;10.366;2024-02-23T14:30:46;12.90;;;3.78;;
44476;SDS011;30180;44.788;10.366;2024-02-23T14:33:14;9.35;;;3.80;;
44476;SDS011;30180;44.788;10.366;2024-02-23T14:35:43;8.30;;;3.80;;
44476;SDS011;30180;44.788;10.366;2024-02-23T14:38:13;11.32;;;3.97;;
44476;SDS011;30180;44.788;10.366;2024-02-23T14:40:41;10.48;;;4.38;;